TimeCST,TemperatureF,Dew PointF,Humidity,Sea Level PressureIn,VisibilityMPH,Wind Direction,Wind SpeedMPH,Gust SpeedMPH,PrecipitationIn,Events,Conditions,WindDirDegrees,DateUTC
12:53 AM,39.0,37.0,93,30.31,10.0,West,3.5,-,N/A,,Clear,270,2012-11-19 06:53:00
1:53 AM,39.0,37.0,93,30.30,10.0,Calm,Calm,-,N/A,,Clear,0,2012-11-19 07:53:00
2:53 AM,37.0,35.1,93,30.29,10.0,Calm,Calm,-,N/A,,Clear,0,2012-11-19 08:53:00
3:53 AM,36.0,35.1,97,30.29,10.0,Calm,Calm,-,N/A,,Clear,0,2012-11-19 09:53:00
4:53 AM,36.0,35.1,97,30.29,10.0,Calm,Calm,-,N/A,,Clear,0,2012-11-19 10:53:00
5:53 AM,36.0,34.0,93,30.30,10.0,Calm,Calm,-,N/A,,Clear,0,2012-11-19 11:53:00
6:53 AM,37.0,35.1,93,30.30,10.0,Calm,Calm,-,N/A,,Clear,0,2012-11-19 12:53:00
7:53 AM,42.1,39.9,92,30.30,10.0,Calm,Calm,-,N/A,,Clear,0,2012-11-19 13:53:00
8:53 AM,48.9,42.1,77,30.32,10.0,SSE,3.5,-,N/A,,Clear,160,2012-11-19 14:53:00
9:53 AM,55.0,43.0,64,30.33,10.0,South,4.6,-,N/A,,Scattered Clouds,190,2012-11-19 15:53:00
10:53 AM,61.0,41.0,48,30.32,10.0,South,5.8,-,N/A,,Clear,170,2012-11-19 16:53:00
11:53 AM,62.1,42.1,48,30.29,10.0,South,5.8,-,N/A,,Mostly Cloudy,170,2012-11-19 17:53:00
12:53 PM,64.9,41.0,42,30.25,10.0,South,6.9,-,N/A,,Clear,180,2012-11-19 18:53:00
1:53 PM,66.0,39.9,38,30.22,10.0,South,3.5,-,N/A,,Clear,170,2012-11-19 19:53:00
2:53 PM,66.9,39.9,37,30.21,10.0,SSE,3.5,-,N/A,,Partly Cloudy,150,2012-11-19 20:53:00
3:53 PM,66.0,39.9,38,30.21,10.0,Calm,Calm,-,N/A,,Partly Cloudy,0,2012-11-19 21:53:00
4:53 PM,62.1,45.0,53,30.20,10.0,ESE,3.5,-,N/A,,Overcast,110,2012-11-19 22:53:00
5:53 PM,57.9,48.9,72,30.22,10.0,SE,3.5,-,N/A,,Overcast,130,2012-11-19 23:53:00
6:53 PM,57.9,48.0,70,30.22,10.0,Calm,Calm,-,N/A,,Overcast,0,2012-11-20 00:53:00
7:53 PM,57.0,46.9,69,30.21,10.0,SSE,3.5,-,N/A,,Overcast,160,2012-11-20 01:53:00
8:53 PM,55.0,45.0,69,30.20,10.0,South,3.5,-,N/A,,Partly Cloudy,190,2012-11-20 02:53:00
9:53 PM,54.0,45.0,72,30.21,10.0,South,3.5,-,N/A,,Overcast,190,2012-11-20 03:53:00
10:53 PM,53.1,48.0,83,30.20,10.0,Calm,Calm,-,N/A,,Mostly Cloudy,0,2012-11-20 04:53:00
11:53 PM,53.1,48.0,83,30.19,10.0,Calm,Calm,-,N/A,,Overcast,0,2012-11-20 05:53:00